Terminal Aerodrome Forecast
Issued by NWS Portland, OR

Home | Current Version | Previous Version | Text Only | Print | Product List | Glossary On
Versions: 1 2 3 4 5 6 7 8 9 10 11 12 13 14 15 16 17 18
000
FTUS46 KPQR 200530
TAFTTD
TAF
KTTD 200530Z 2006/2106 25006KT P6SM BKN050
     FM201000 VRB04KT P6SM SCT150
     FM201400 VRB03KT P6SM SCT025
     FM202100 12007KT P6SM BKN250=

USA.gov is the U.S. government's official web portal to all federal, state and local government web resources and services.